Time;durP1;ratioP1;P1;durP2;ratioP2;P2;SDS_P1;SDS_P2;PMS_P1;PMS_P2;Temp;Humidity;BMP_temperature;BMP_pressure;BME280_temperature;BME280_humidity;BME280_pressure;Samples;Min_cycle;Max_cycle;Signal;HPM_P1;HPM_P2
2023/04/10 00:02:25;;;;;;;2.65;1.65;;;;;;;8.61;100.00;97866.28;5090741;28;20034;-75
2023/04/10 00:04:50;;;;;;;1.35;1.23;;;;;;;8.61;100.00;97860.97;5090747;28;20020;-75
2023/04/10 00:07:16;;;;;;;2.47;2.28;;;;;;;8.66;100.00;97859.78;5072625;28;20445;-75
2023/04/10 00:09:42;;;;;;;2.53;2.22;;;;;;;8.56;100.00;97852.31;5055946;28;20024;-75
2023/04/10 00:12:09;;;;;;;3.50;1.38;;;;;;;8.59;100.00;97860.16;5091033;28;20030;-75
2023/04/10 00:14:35;;;;;;;2.78;1.38;;;;;;;8.57;100.00;97854.03;5055890;28;20110;-76
2023/04/10 00:17:01;;;;;;;1.98;1.55;;;;;;;8.56;100.00;97846.97;5072932;28;20074;-76
2023/04/10 00:19:26;;;;;;;2.65;2.42;;;;;;;8.58;100.00;97856.63;5072689;28;20024;-75
2023/04/10 00:21:52;;;;;;;5.45;2.55;;;;;;;8.55;100.00;97845.25;5090743;28;20024;-74
2023/04/10 00:24:17;;;;;;;0.93;0.88;;;;;;;8.60;100.00;97851.22;5072463;28;20039;-76
2023/04/10 00:26:43;;;;;;;2.33;1.77;;;;;;;8.55;100.00;97846.09;5072539;28;20077;-75
2023/04/10 00:29:08;;;;;;;11.10;1.70;;;;;;;8.50;100.00;97845.47;5072387;28;20023;-76
2023/04/10 00:31:34;;;;;;;3.38;2.33;;;;;;;8.52;100.00;97840.09;5055819;28;20119;-74
2023/04/10 00:33:59;;;;;;;5.90;2.25;;;;;;;8.53;100.00;97837.31;5090600;28;20029;-75
2023/04/10 00:36:25;;;;;;;4.40;2.13;;;;;;;8.58;100.00;97847.78;5053616;28;20400;-75
2023/04/10 00:38:51;;;;;;;1.40;1.30;;;;;;;8.57;100.00;97843.38;5055764;28;20059;-74
2023/04/10 00:41:16;;;;;;;3.60;2.08;;;;;;;8.55;100.00;97837.28;5052204;28;20509;-74
2023/04/10 00:43:43;;;;;;;1.05;1.00;;;;;;;8.47;100.00;97823.44;5070702;28;20197;-76
2023/04/10 00:46:09;;;;;;;1.95;1.40;;;;;;;8.45;100.00;97823.53;5072564;28;20103;-75
2023/04/10 00:48:35;;;;;;;2.03;1.45;;;;;;;8.46;100.00;97827.91;5090140;28;20111;-75
2023/04/10 00:51:00;;;;;;;1.50;1.38;;;;;;;8.45;100.00;97828.00;5055606;28;20039;-74
2023/04/10 00:53:26;;;;;;;0.80;0.80;;;;;;;8.47;100.00;97823.44;5072344;28;20028;-74
2023/04/10 00:55:52;;;;;;;5.72;2.15;;;;;;;8.37;100.00;97817.69;5055421;28;20024;-74
2023/04/10 00:58:17;;;;;;;1.60;1.50;;;;;;;8.40;100.00;97824.69;5072205;28;20035;-74
2023/04/10 01:00:43;;;;;;;0.95;0.90;;;;;;;8.38;100.00;97826.56;5090000;28;20030;-76
2023/04/10 01:03:10;;;;;;;6.43;2.00;;;;;;;8.31;100.00;97820.66;5072296;28;20028;-74
2023/04/10 01:05:49;;;;;;;2.25;1.13;;;;;;;8.41;100.00;97829.94;5055033;28;20067;-74
2023/04/10 01:08:30;;;;;;;1.02;0.98;;;;;;;8.45;100.00;97833.31;5090408;28;20044;-74
2023/04/10 01:11:05;;;;;;;1.73;1.35;;;;;;;8.47;100.00;97832.31;5058356;28;20028;-74
2023/04/10 01:13:39;;;;;;;2.30;1.60;;;;;;;8.49;100.00;97824.25;5059160;28;20491;-74
2023/04/10 01:16:26;;;;;;;3.15;1.75;;;;;;;8.45;100.00;97818.19;5093825;28;20524;-74
2023/04/10 01:19:20;;;;;;;1.23;1.10;;;;;;;8.36;100.00;97807.97;5075287;28;20043;-75
2023/04/10 01:21:46;;;;;;;1.13;1.02;;;;;;;8.41;100.00;97811.28;5093451;28;20541;-74
2023/04/10 01:24:37;;;;;;;1.30;1.20;;;;;;;8.43;100.00;97814.72;5075518;28;20479;-74
2023/04/10 01:27:44;;;;;;;6.20;1.83;;;;;;;8.45;100.00;97804.00;5093633;28;20082;-75
2023/04/10 01:30:13;;;;;;;1.50;1.27;;;;;;;8.33;100.00;97801.94;5071400;28;20035;-74
2023/04/10 01:32:39;;;;;;;1.73;1.63;;;;;;;8.28;100.00;97798.63;5074977;28;20020;-74
2023/04/10 01:35:06;;;;;;;2.90;1.80;;;;;;;8.15;100.00;97795.69;5075787;28;20107;-77
2023/04/10 01:37:33;;;;;;;3.30;1.65;;;;;;;8.13;100.00;97795.72;5075529;28;20024;-77
2023/04/10 01:40:02;;;;;;;7.40;1.50;;;;;;;8.05;100.00;97787.25;5075269;28;20024;-77
2023/04/10 01:42:30;;;;;;;2.30;1.80;;;;;;;8.06;100.00;97798.75;5075198;28;20051;-76
2023/04/10 01:44:56;;;;;;;1.92;1.35;;;;;;;8.08;100.00;97819.06;5075142;28;20035;-76
2023/04/10 01:47:23;;;;;;;0.55;0.52;;;;;;;8.06;100.00;97812.94;5075209;28;20415;-77
2023/04/10 01:49:49;;;;;;;2.97;1.17;;;;;;;8.07;100.00;97817.34;5057090;28;20030;-75
2023/04/10 01:52:15;;;;;;;2.50;1.08;;;;;;;8.18;100.00;97819.50;5054777;28;20034;-75
2023/04/10 01:54:42;;;;;;;1.88;1.02;;;;;;;8.25;100.00;97820.91;5072431;28;20024;-75
2023/04/10 01:57:09;;;;;;;3.17;1.60;;;;;;;8.28;100.00;97819.94;5074941;28;20518;-75
2023/04/10 01:59:34;;;;;;;1.92;0.90;;;;;;;8.31;100.00;97811.78;5074906;28;20024;-75
2023/04/10 02:02:00;;;;;;;1.05;1.00;;;;;;;8.22;100.00;97806.88;5074825;28;20023;-75
2023/04/10 02:04:26;;;;;;;5.63;2.00;;;;;;;8.29;100.00;97813.69;5092759;28;20052;-75
2023/04/10 02:07:14;;;;;;;2.83;2.03;;;;;;;8.29;100.00;97814.53;5074271;28;20023;-75
2023/04/10 02:09:45;;;;;;;3.38;2.28;;;;;;;8.12;100.00;97815.31;5074594;28;20082;-75
2023/04/10 02:12:15;;;;;;;6.63;2.85;;;;;;;8.16;100.00;97806.25;5074748;28;20020;-75
2023/04/10 02:14:44;;;;;;;4.95;2.63;;;;;;;8.22;100.00;97812.19;5057617;28;20437;-75
2023/04/10 02:17:12;;;;;;;1.27;0.93;;;;;;;8.12;100.00;97804.66;5074440;28;20081;-75
2023/04/10 02:19:37;;;;;;;3.15;2.03;;;;;;;8.14;100.00;97805.47;5074054;28;20048;-76
2023/04/10 02:22:04;;;;;;;2.72;2.05;;;;;;;8.12;100.00;97809.97;5073987;28;20129;-74
2023/04/10 02:24:31;;;;;;;2.67;1.83;;;;;;;8.14;100.00;97804.59;5074312;28;20031;-74
2023/04/10 02:26:56;;;;;;;3.17;2.13;;;;;;;8.13;100.00;97798.41;5073973;28;20506;-75
2023/04/10 02:29:22;;;;;;;1.02;0.93;;;;;;;8.17;100.00;97807.13;5054130;28;20028;-76
2023/04/10 02:31:49;;;;;;;1.25;0.95;;;;;;;8.14;100.00;97800.13;5089506;28;20030;-75
2023/04/10 02:34:15;;;;;;;1.90;1.55;;;;;;;8.10;100.00;97795.88;5074051;28;20030;-74
2023/04/10 02:36:40;;;;;;;1.98;1.38;;;;;;;8.13;100.00;97809.06;5074269;28;20028;-75
2023/04/10 02:39:07;;;;;;;1.25;1.13;;;;;;;8.10;100.00;97806.53;5073954;28;20094;-75
2023/04/10 02:41:32;;;;;;;2.60;2.40;;;;;;;8.07;100.00;97801.34;5074095;28;20487;-75
2023/04/10 02:43:58;;;;;;;2.45;1.77;;;;;;;8.07;100.00;97805.81;5073459;28;20036;-74
2023/04/10 02:46:23;;;;;;;1.92;1.52;;;;;;;8.06;100.00;97804.06;5053796;28;20498;-74
2023/04/10 02:48:51;;;;;;;2.83;2.10;;;;;;;7.99;100.00;97798.22;5070740;28;20032;-74
2023/04/10 02:51:16;;;;;;;3.75;1.67;;;;;;;8.06;100.00;97802.28;5057055;28;20028;-75
2023/04/10 02:53:42;;;;;;;1.83;0.93;;;;;;;8.09;100.00;97793.31;5091830;28;20020;-74
2023/04/10 02:56:08;;;;;;;2.75;2.15;;;;;;;8.05;100.00;97784.59;5073653;28;20030;-75
2023/04/10 02:58:34;;;;;;;4.53;1.73;;;;;;;8.14;100.00;97789.47;5053705;28;20040;-74
2023/04/10 03:01:00;;;;;;;3.80;1.98;;;;;;;8.08;100.00;97800.44;5071541;28;20031;-75
2023/04/10 03:03:26;;;;;;;5.30;2.05;;;;;;;8.03;100.00;97793.56;5073508;28;20035;-74
2023/04/10 03:05:52;;;;;;;0.80;0.80;;;;;;;8.08;100.00;97800.44;5073349;28;20082;-74
2023/04/10 03:08:18;;;;;;;2.08;1.88;;;;;;;8.13;100.00;97794.88;5073423;28;20088;-74
2023/04/10 03:10:44;;;;;;;7.22;2.55;;;;;;;8.09;100.00;97794.13;5073254;28;20507;-75
2023/04/10 03:13:10;;;;;;;1.75;1.08;;;;;;;8.15;100.00;97796.50;5056459;28;20024;-74
2023/04/10 03:15:37;;;;;;;4.95;1.92;;;;;;;8.14;100.00;97800.13;5056884;28;20101;-75
2023/04/10 03:18:04;;;;;;;2.03;1.48;;;;;;;8.17;100.00;97807.97;5073258;28;20047;-74
2023/04/10 03:20:35;;;;;;;2.35;1.80;;;;;;;8.21;100.00;97806.03;5053539;28;20089;-75
2023/04/10 03:23:00;;;;;;;1.75;1.55;;;;;;;8.20;100.00;97798.97;5056707;28;20035;-75
2023/04/10 03:25:26;;;;;;;2.53;2.05;;;;;;;8.19;100.00;97795.44;5073204;28;20028;-74
2023/04/10 03:27:52;;;;;;;1.42;0.88;;;;;;;8.24;100.00;97807.69;5073172;28;20149;-75
2023/04/10 03:30:17;;;;;;;6.72;3.30;;;;;;;8.28;100.00;97801.28;5056123;28;20107;-75
2023/04/10 03:32:43;;;;;;;7.20;3.25;;;;;;;8.29;100.00;97800.34;5072604;28;20498;-75
2023/04/10 03:35:09;;;;;;;2.33;1.70;;;;;;;8.28;100.00;97786.16;5073274;28;20014;-76
2023/04/10 03:37:35;;;;;;;3.45;2.47;;;;;;;8.30;100.00;97786.97;5073223;28;20016;-74
2023/04/10 03:40:04;;;;;;;3.20;2.53;;;;;;;8.30;100.00;97794.97;5056147;28;20430;-75
2023/04/10 03:42:30;;;;;;;3.88;2.10;;;;;;;8.30;100.00;97794.09;5072816;28;20072;-74
2023/04/10 03:44:55;;;;;;;4.82;2.47;;;;;;;8.25;100.00;97786.28;5072821;28;20499;-74
2023/04/10 03:47:21;;;;;;;11.15;3.08;;;;;;;8.26;100.00;97787.16;5055973;28;20028;-75
2023/04/10 03:49:46;;;;;;;4.97;3.53;;;;;;;8.24;100.00;97787.22;5090765;28;20028;-75
2023/04/10 03:52:12;;;;;;;1.25;1.05;;;;;;;8.12;100.00;97795.81;5090589;28;20023;-74
2023/04/10 03:54:37;;;;;;;6.35;2.63;;;;;;;8.13;100.00;97806.38;5091171;28;20016;-76
2023/04/10 03:57:04;;;;;;;1.75;0.73;;;;;;;8.17;100.00;97809.78;5072914;28;20483;-77
2023/04/10 03:59:29;;;;;;;9.90;4.57;;;;;;;8.14;100.00;97804.59;5072832;28;20028;-76
2023/04/10 04:01:55;;;;;;;2.83;1.42;;;;;;;8.17;100.00;97818.63;5072788;28;20040;-75
2023/04/10 04:04:20;;;;;;;4.85;1.83;;;;;;;8.14;100.00;97818.78;5072504;28;20047;-76
2023/04/10 04:06:47;;;;;;;2.47;1.40;;;;;;;8.16;100.00;97827.56;5056124;28;20403;-76
2023/04/10 04:09:13;;;;;;;20.75;9.07;;;;;;;8.14;100.00;97826.78;5090665;28;20049;-75
2023/04/10 04:11:38;;;;;;;4.38;3.30;;;;;;;8.20;100.00;97838.94;5056103;28;20035;-76
2023/04/10 04:14:04;;;;;;;1.83;1.52;;;;;;;8.23;100.00;97837.91;5052419;28;20020;-74
2023/04/10 04:16:29;;;;;;;2.83;1.92;;;;;;;8.23;100.00;97832.59;5090569;28;20426;-76
2023/04/10 04:19:02;;;;;;;3.75;1.45;;;;;;;8.32;100.00;97829.50;5072447;28;20506;-75
2023/04/10 04:21:28;;;;;;;1.30;0.93;;;;;;;8.21;100.00;97830.00;5069786;28;20122;-74
2023/04/10 04:23:54;;;;;;;0.65;0.65;;;;;;;8.32;100.00;97835.72;5072928;28;20112;-75
2023/04/10 04:26:20;;;;;;;2.70;1.63;;;;;;;8.33;100.00;97829.47;5072505;28;20028;-75
2023/04/10 04:28:46;;;;;;;3.53;1.85;;;;;;;8.34;100.00;97836.50;5052444;28;20101;-75
2023/04/10 04:31:11;;;;;;;1.67;1.40;;;;;;;8.12;100.00;97822.47;5072254;28;20032;-76
2023/04/10 04:33:37;;;;;;;3.13;2.83;;;;;;;8.13;100.00;97827.69;5090255;28;20111;-74
2023/04/10 04:36:02;;;;;;;7.57;1.98;;;;;;;8.10;100.00;97830.50;5090879;28;20024;-76
2023/04/10 04:38:28;;;;;;;2.92;2.70;;;;;;;8.08;100.00;97840.38;5073123;28;20040;-76
2023/04/10 04:40:53;;;;;;;8.80;5.15;;;;;;;8.09;100.00;97842.09;5055756;28;20510;-78
2023/04/10 04:43:19;;;;;;;11.63;4.68;;;;;;;8.08;100.00;97851.03;5056417;28;20052;-77
2023/04/10 04:45:45;;;;;;;4.30;3.03;;;;;;;8.18;100.00;97857.66;5076255;28;20086;-77
2023/04/10 04:48:10;;;;;;;2.90;2.22;;;;;;;8.22;100.00;97841.50;5060416;28;20501;-78
2023/04/10 04:50:35;;;;;;;26.67;8.93;;;;;;;8.43;100.00;97867.19;5060047;28;20020;-78
2023/04/10 04:53:01;;;;;;;5.97;3.28;;;;;;;8.39;100.00;97854.94;5056426;28;20538;-79
2023/04/10 04:55:26;;;;;;;3.20;1.70;;;;;;;8.31;100.00;97846.44;5074554;28;20032;-78
2023/04/10 04:57:52;;;;;;;4.57;1.77;;;;;;;8.44;100.00;97842.25;5059429;28;20024;-75
2023/04/10 05:00:18;;;;;;;4.15;1.20;;;;;;;8.50;100.00;97837.47;5075955;28;20038;-75
2023/04/10 05:02:43;;;;;;;4.32;2.13;;;;;;;8.51;100.00;97827.69;5059098;28;20118;-77
2023/04/10 05:05:09;;;;;;;1.88;1.70;;;;;;;8.58;100.00;97829.13;5055760;28;20047;-76
2023/04/10 05:07:34;;;;;;;1.63;1.42;;;;;;;8.47;100.00;97818.97;5057585;28;20032;-75
2023/04/10 05:10:00;;;;;;;2.17;2.03;;;;;;;8.63;100.00;97817.28;5055926;28;20024;-77
2023/04/10 05:12:25;;;;;;;6.38;2.28;;;;;;;8.70;100.00;97818.69;5054979;28;20043;-76
2023/04/10 05:14:51;;;;;;;4.38;2.30;;;;;;;8.86;100.00;97821.44;5048880;28;20013;-77
2023/04/10 05:17:16;;;;;;;31.92;2.45;;;;;;;8.92;100.00;97806.94;5059078;28;20028;-75
2023/04/10 05:19:42;;;;;;;6.90;2.45;;;;;;;9.04;100.00;97801.84;5075474;28;20024;-76
2023/04/10 05:22:08;;;;;;;2.83;2.00;;;;;;;9.11;100.00;97800.56;5075632;28;20028;-76
2023/04/10 05:24:33;;;;;;;4.47;3.60;;;;;;;9.12;100.00;97786.28;5093503;28;20501;-75
2023/04/10 05:26:59;;;;;;;8.02;3.88;;;;;;;9.36;100.00;97780.59;5075733;28;20032;-76
2023/04/10 05:29:25;;;;;;;5.82;2.28;;;;;;;9.29;100.00;97763.19;5075572;28;20035;-76
2023/04/10 05:31:51;;;;;;;2.33;1.17;;;;;;;9.41;100.00;97768.75;5058749;28;20134;-77
2023/04/10 05:34:16;;;;;;;2.20;2.00;;;;;;;9.66;100.00;97770.91;5076012;28;20024;-78
2023/04/10 05:36:42;;;;;;;1.75;1.65;;;;;;;9.90;100.00;97766.91;5075507;28;20035;-77
2023/04/10 05:39:08;;;;;;;0.88;0.88;;;;;;;9.75;100.00;97746.41;5075388;28;20027;-76
2023/04/10 05:41:33;;;;;;;1.35;1.25;;;;;;;9.71;100.00;97734.16;5093381;28;20035;-85
2023/04/10 05:43:59;;;;;;;3.50;1.15;;;;;;;9.84;100.00;97734.34;5054922;28;20133;-74
2023/04/10 05:46:24;;;;;;;5.50;3.13;;;;;;;9.65;100.00;97734.50;5051892;28;20037;-74
2023/04/10 05:48:50;;;;;;;5.97;2.33;;;;;;;9.71;100.00;97727.00;5054884;28;20078;-75
2023/04/10 05:51:15;;;;;;;3.33;2.50;;;;;;;9.82;100.00;97721.03;5055378;28;20033;-75
2023/04/10 05:53:41;;;;;;;1.45;1.35;;;;;;;9.82;100.00;97715.69;5054971;28;20066;-76
2023/04/10 05:56:07;;;;;;;1.58;1.45;;;;;;;9.87;100.00;97715.47;5068084;28;20496;-76
2023/04/10 05:58:32;;;;;;;2.78;1.70;;;;;;;10.40;100.00;97720.44;5035141;28;20024;-76
2023/04/10 06:00:58;;;;;;;1.70;1.20;;;;;;;10.74;100.00;97706.75;5049351;28;20028;-77
2023/04/10 06:03:26;;;;;;;3.00;2.40;;;;;;;10.96;100.00;97696.50;5052293;28;20024;-76
2023/04/10 06:05:52;;;;;;;1.27;1.17;;;;;;;11.09;100.00;97683.22;5051922;28;20020;-76
2023/04/10 06:08:18;;;;;;;2.30;2.00;;;;;;;11.04;100.00;97672.81;5052237;28;20036;-76
2023/04/10 06:10:45;;;;;;;1.95;0.90;;;;;;;11.08;100.00;97662.75;5070059;28;20494;-75
2023/04/10 06:13:11;;;;;;;3.47;1.88;;;;;;;11.07;100.00;97669.94;5035325;28;20496;-75
2023/04/10 06:15:36;;;;;;;1.13;1.02;;;;;;;11.10;100.00;97661.72;5051771;28;20023;-77
2023/04/10 06:18:02;;;;;;;1.00;0.88;;;;;;;10.76;100.00;97646.03;5069686;28;20055;-76
2023/04/10 06:20:27;;;;;;;2.15;1.83;;;;;;;10.48;100.00;97645.97;5052033;28;20131;-77
2023/04/10 06:22:53;;;;;;;3.80;2.20;;;;;;;10.52;100.00;97659.03;5034525;28;20032;-77
2023/04/10 06:25:18;;;;;;;4.15;1.65;;;;;;;10.45;100.00;97660.38;5068597;28;20020;-75
2023/04/10 06:27:44;;;;;;;3.53;2.33;;;;;;;10.62;100.00;97649.53;5051687;28;20478;-76
2023/04/10 06:30:10;;;;;;;3.25;2.05;;;;;;;10.67;100.00;97641.22;5069618;28;20028;-77
2023/04/10 06:32:35;;;;;;;1.67;1.05;;;;;;;10.62;100.00;97633.47;5035041;28;20024;-76
2023/04/10 06:35:01;;;;;;;1.70;0.65;;;;;;;10.77;100.00;97631.66;5051723;28;20074;-76
2023/04/10 06:37:30;;;;;;;2.72;1.30;;;;;;;10.70;100.00;97646.41;5051731;28;20781;-76
2023/04/10 06:40:13;;;;;;;1.02;0.93;;;;;;;10.79;100.00;97630.66;5034812;28;20043;-76
2023/04/10 06:42:39;;;;;;;3.38;1.73;;;;;;;11.14;100.00;97640.94;5051937;28;20048;-76
2023/04/10 06:45:06;;;;;;;1.13;1.02;;;;;;;11.01;100.00;97631.97;5069298;28;20033;-77
2023/04/10 06:47:34;;;;;;;1.45;1.27;;;;;;;10.43;100.00;97626.66;5051148;28;20082;-77
2023/04/10 06:49:59;;;;;;;3.58;2.08;;;;;;;10.60;100.00;97642.53;5052274;28;20567;-76
2023/04/10 06:52:25;;;;;;;1.60;1.25;;;;;;;11.13;100.00;97644.59;5067942;28;20151;-76
2023/04/10 06:54:51;;;;;;;3.08;2.42;;;;;;;11.56;100.00;97648.97;5069130;28;20028;-77
2023/04/10 06:57:17;;;;;;;5.53;1.50;;;;;;;11.72;100.00;97644.34;5067919;28;20405;-77
2023/04/10 06:59:43;;;;;;;1.33;1.23;;;;;;;11.90;100.00;97637.78;5069144;28;20024;-77
2023/04/10 07:02:09;;;;;;;2.58;1.60;;;;;;;11.95;100.00;97634.81;5069062;28;20022;-76
2023/04/10 07:04:34;;;;;;;4.82;2.22;;;;;;;11.84;100.00;97624.78;5067683;28;20028;-76
2023/04/10 07:07:00;;;;;;;1.77;0.90;;;;;;;12.18;100.00;97631.44;5067529;28;20012;-77
2023/04/10 07:09:26;;;;;;;9.07;1.55;;;;;;;11.67;100.00;97616.09;5068757;28;20125;-77
2023/04/10 07:11:52;;;;;;;2.70;1.10;;;;;;;12.12;100.00;97617.63;5067749;28;20028;-76
2023/04/10 07:14:18;;;;;;;1.70;1.20;;;;;;;13.16;100.00;97625.59;5067778;28;20025;-76
2023/04/10 07:16:43;;;;;;;1.70;1.48;;;;;;;13.78;100.00;97603.06;5067547;28;20450;-76
2023/04/10 07:19:09;;;;;;;1.48;1.38;;;;;;;13.72;100.00;97608.06;5050683;28;20490;-77
2023/04/10 07:21:35;;;;;;;2.97;1.98;;;;;;;13.94;100.00;97595.59;5067515;28;20055;-77
2023/04/10 07:24:00;;;;;;;3.70;1.92;;;;;;;14.12;100.00;97596.03;5067183;28;20032;-77
2023/04/10 07:26:26;;;;;;;2.90;1.27;;;;;;;14.64;100.00;97588.41;5046919;28;20025;-78
2023/04/10 07:28:51;;;;;;;2.35;1.75;;;;;;;14.88;100.00;97585.66;5068425;28;20020;-77
2023/04/10 07:31:17;;;;;;;2.63;1.50;;;;;;;14.81;100.00;97583.56;5047272;28;20179;-75
2023/04/10 07:33:44;;;;;;;1.88;1.52;;;;;;;14.77;100.00;97584.75;5036735;28;20039;-75
2023/04/10 07:36:10;;;;;;;1.35;1.02;;;;;;;14.64;100.00;97577.63;5050617;28;20470;-76
2023/04/10 07:38:36;;;;;;;1.45;1.17;;;;;;;13.78;100.00;97572.66;5050641;28;20064;-76
2023/04/10 07:41:09;;;;;;;2.65;1.17;;;;;;;13.32;100.00;97591.28;5067080;28;20021;-77
2023/04/10 07:43:35;;;;;;;4.80;2.15;;;;;;;13.69;100.00;97584.91;5049130;28;20041;-76
2023/04/10 07:46:00;;;;;;;1.15;0.95;;;;;;;13.26;100.00;97586.38;5050003;28;20028;-75
2023/04/10 07:48:26;;;;;;;4.55;1.85;;;;;;;13.15;100.00;97587.13;5066519;28;20458;-76
2023/04/10 07:50:53;;;;;;;1.38;1.27;;;;;;;13.21;100.00;97592.06;5066908;28;20139;-76
2023/04/10 07:53:18;;;;;;;4.25;1.45;;;;;;;13.56;100.00;97574.25;5066875;28;20119;-77
2023/04/10 07:55:47;;;;;;;2.10;1.55;;;;;;;13.75;100.00;97578.25;5068036;28;20043;-75
2023/04/10 07:58:13;;;;;;;1.88;1.75;;;;;;;14.15;100.00;97578.81;5067012;28;20592;-76
2023/04/10 08:00:38;;;;;;;0.90;0.90;;;;;;;14.68;100.00;97574.72;5067211;28;20441;-77
2023/04/10 08:03:05;;;;;;;3.10;1.42;;;;;;;15.60;95.16;97576.22;5066940;28;20054;-76
2023/04/10 08:05:30;;;;;;;3.55;1.75;;;;;;;15.47;92.18;97571.94;5046831;28;20036;-77
2023/04/10 08:07:56;;;;;;;3.83;1.35;;;;;;;15.25;94.79;97580.91;5066807;28;20032;-77
2023/04/10 08:10:21;;;;;;;2.50;0.95;;;;;;;15.16;96.66;97581.63;5066968;28;20028;-76
2023/04/10 08:12:47;;;;;;;5.78;1.52;;;;;;;15.53;94.83;97582.25;5048679;28;20055;-77
2023/04/10 08:15:12;;;;;;;3.20;1.40;;;;;;;15.60;94.11;97587.00;5066863;28;20399;-76
2023/04/10 08:17:38;;;;;;;1.23;0.98;;;;;;;15.88;92.60;97582.91;5066849;28;20036;-75
2023/04/10 08:20:04;;;;;;;1.15;1.02;;;;;;;16.16;86.91;97571.53;5051209;28;20033;-78
2023/04/10 08:22:29;;;;;;;5.93;2.22;;;;;;;16.15;87.57;97579.78;5070970;28;20050;-77
2023/04/10 08:24:55;;;;;;;1.90;1.30;;;;;;;16.65;89.10;97589.84;5070682;28;20181;-77
2023/04/10 08:27:21;;;;;;;4.25;2.22;;;;;;;16.72;84.74;97584.78;5071773;28;20056;-76
2023/04/10 08:29:46;;;;;;;1.10;0.63;;;;;;;16.68;82.52;97573.38;5070656;28;20486;-77
2023/04/10 08:32:12;;;;;;;0.80;0.80;;;;;;;16.63;82.64;97574.78;5070399;28;20058;-76
2023/04/10 08:34:37;;;;;;;3.85;1.08;;;;;;;16.42;84.67;97580.13;5050342;28;20056;-77
2023/04/10 08:37:08;;;;;;;1.77;1.25;;;;;;;17.02;81.74;97570.44;5071081;28;20024;-77
2023/04/10 08:39:35;;;;;;;1.73;1.38;;;;;;;16.94;76.35;97551.34;5053732;28;20114;-77
2023/04/10 08:42:00;;;;;;;1.52;0.90;;;;;;;17.06;82.76;97564.66;5053501;28;20035;-77
2023/04/10 08:44:26;;;;;;;1.10;1.00;;;;;;;16.60;78.68;97548.88;5070109;28;20057;-77
2023/04/10 08:46:52;;;;;;;5.20;1.52;;;;;;;15.73;83.78;97563.44;5070556;28;20101;-76
2023/04/10 08:49:24;;;;;;;0.63;0.60;;;;;;;15.79;88.50;97575.56;5069978;28;20090;-78
2023/04/10 08:51:56;;;;;;;;;;;;;;;16.25;87.87;97581.56;5070855;28;20031;-77
2023/04/10 08:54:27;;;;;;;3.47;0.93;;;;;;;16.23;90.90;97586.22;5069889;28;19945;-77
2023/04/10 08:56:54;;;;;;;1.45;0.93;;;;;;;16.14;85.47;97559.16;5070265;28;20028;-75
2023/04/10 08:59:20;;;;;;;0.85;0.68;;;;;;;16.32;89.12;97579.19;5053030;28;20057;-76
2023/04/10 09:01:48;;;;;;;2.17;1.58;;;;;;;16.95;83.89;97574.69;5070031;28;20399;-77
2023/04/10 09:04:15;;;;;;;1.45;0.98;;;;;;;17.11;83.48;97569.63;5069854;28;20403;-76
2023/04/10 09:06:41;;;;;;;1.95;1.30;;;;;;;15.99;93.26;97569.41;5070869;28;20052;-76
2023/04/10 09:09:06;;;;;;;1.55;1.38;;;;;;;16.33;87.89;97563.84;5053393;28;20059;-76
2023/04/10 09:11:50;;;;;;;4.20;2.55;;;;;;;16.27;88.37;97566.06;5070003;28;20095;-77
2023/04/10 09:14:23;;;;;;;1.85;1.50;;;;;;;15.03;94.75;97559.34;5070473;28;20039;-76
2023/04/10 09:16:49;;;;;;;5.05;1.95;;;;;;;14.68;100.00;97574.72;5069707;28;20035;-77
2023/04/10 09:19:32;;;;;;;2.13;1.90;;;;;;;14.20;100.00;97561.34;5069080;28;20476;-75
2023/04/10 09:21:57;;;;;;;6.53;2.28;;;;;;;14.44;100.00;97572.94;5071106;28;20033;-78
2023/04/10 09:24:23;;;;;;;1.38;1.27;;;;;;;14.33;100.00;97566.69;5070300;28;20045;-76
2023/04/10 09:26:49;;;;;;;2.70;1.40;;;;;;;15.17;98.56;97569.84;5070279;28;20062;-77
2023/04/10 09:29:15;;;;;;;7.35;2.05;;;;;;;14.86;93.30;97541.81;5070506;28;20033;-78
2023/04/10 09:31:42;;;;;;;3.38;2.45;;;;;;;15.07;94.29;97542.78;5051810;28;20111;-77
2023/04/10 09:34:20;;;;;;;0.85;0.85;;;;;;;15.43;88.52;97530.88;5052774;28;20028;-77
2023/04/10 09:36:56;;;;;;;1.13;1.05;;;;;;;15.28;91.96;97534.84;5069386;28;20032;-77
2023/04/10 09:39:33;;;;;;;4.32;1.65;;;;;;;15.36;89.20;97524.28;5069207;28;20074;-76
2023/04/10 09:41:58;;;;;;;3.72;1.65;;;;;;;15.42;86.83;97512.13;5069337;28;20027;-76
2023/04/10 09:44:30;;;;;;;2.80;1.65;;;;;;;16.09;77.88;97507.38;5050881;28;20452;-77
2023/04/10 09:46:56;;;;;;;4.60;1.97;;;;;;;16.67;77.21;97512.22;5069537;28;20032;-77
2023/04/10 09:49:21;;;;;;;0.95;0.88;;;;;;;17.31;70.55;97501.16;5052712;28;20336;-78
2023/04/10 09:51:48;;;;;;;1.17;1.08;;;;;;;17.18;71.82;97495.13;5068846;28;20039;-76
2023/04/10 09:54:14;;;;;;;4.57;1.40;;;;;;;17.29;70.52;97485.06;5072159;28;20039;-77
2023/04/10 09:56:41;;;;;;;2.38;1.30;;;;;;;18.64;63.04;97498.72;5072879;28;20563;-77
2023/04/10 09:59:07;;;;;;;3.30;1.63;;;;;;;18.42;61.77;97467.38;5070632;28;20028;-77
2023/04/10 10:01:36;;;;;;;3.08;1.05;;;;;;;17.54;63.87;97461.19;5071565;28;20050;-76
2023/04/10 10:04:03;;;;;;;2.25;1.33;;;;;;;17.00;68.64;97458.94;5072603;28;20112;-76
2023/04/10 10:06:32;;;;;;;3.40;1.15;;;;;;;16.30;72.79;97464.25;5071303;28;20518;-76
2023/04/10 10:09:02;;;;;;;9.27;1.00;;;;;;;16.26;75.98;97471.75;5053974;28;20028;-76
2023/04/10 10:11:34;;;;;;;2.20;1.00;;;;;;;15.76;79.44;97472.47;5071367;28;20070;-77
2023/04/10 10:14:02;;;;;;;20.85;1.52;;;;;;;15.51;81.67;97471.81;5070758;28;20027;-75
2023/04/10 10:16:31;;;;;;;1.77;1.52;;;;;;;15.36;83.15;97478.44;5071189;28;20028;-77
2023/04/10 10:19:09;;;;;;;2.08;1.42;;;;;;;15.95;77.08;97464.53;5070776;28;20036;-77
2023/04/10 10:21:35;;;;;;;2.10;1.63;;;;;;;16.84;73.05;97461.28;5071472;28;20035;-77
2023/04/10 10:24:01;;;;;;;1.35;1.08;;;;;;;18.75;63.15;97469.59;5070891;28;20032;-77
2023/04/10 10:26:33;;;;;;;39.92;3.25;;;;;;;18.92;58.29;97430.00;5071223;28;20081;-76
2023/04/10 10:29:02;;;;;;;2.15;1.73;;;;;;;18.41;58.55;97422.31;5071008;28;20533;-76
2023/04/10 10:31:32;;;;;;;1.20;1.05;;;;;;;17.29;63.90;97420.16;5070876;28;20086;-77
2023/04/10 10:34:04;;;;;;;1.50;1.23;;;;;;;17.49;63.84;97418.34;5054552;28;20035;-76
2023/04/10 10:36:32;;;;;;;1.90;1.38;;;;;;;18.36;60.37;97422.72;5071035;28;20040;-76
2023/04/10 10:39:09;;;;;;;1.58;1.02;;;;;;;18.13;59.38;97402.41;5054320;28;20114;-77
2023/04/10 10:41:44;;;;;;;3.97;1.17;;;;;;;16.89;61.68;97378.00;5070386;28;20488;-77
2023/04/10 10:44:26;;;;;;;7.65;1.30;;;;;;;16.13;66.87;97395.50;5070554;28;20048;-77
2023/04/10 10:47:09;;;;;;;1.00;0.90;;;;;;;15.31;64.71;97370.19;5070236;28;20040;-77
2023/04/10 10:49:58;;;;;;;6.82;1.42;;;;;;;14.76;71.42;97373.03;5070677;28;20412;-76
2023/04/10 10:52:51;;;;;;;1.08;0.98;;;;;;;14.55;75.43;97387.22;5061992;28;20062;-77
2023/04/10 10:55:35;;;;;;;3.05;1.98;;;;;;;14.42;77.77;97399.13;5063703;28;20033;-76
2023/04/10 10:58:07;;;;;;;1.00;0.85;;;;;;;13.92;78.93;97390.47;5071435;28;20024;-76
2023/04/10 11:00:51;;;;;;;2.47;1.17;;;;;;;13.85;82.13;97393.75;5070298;28;20032;-76
2023/04/10 11:03:17;;;;;;;1.05;0.95;;;;;;;13.77;86.40;97407.78;5071447;28;20032;-77
2023/04/10 11:06:06;;;;;;;1.10;1.00;;;;;;;13.64;88.55;97408.84;5071468;28;20085;-77
2023/04/10 11:08:32;;;;;;;0.98;0.98;;;;;;;13.51;92.40;97414.28;5070214;28;20127;-77
2023/04/10 11:11:08;;;;;;;1.52;0.93;;;;;;;13.30;92.23;97414.09;5069534;28;20123;-76
2023/04/10 11:13:57;;;;;;;1.17;1.08;;;;;;;13.16;94.71;97422.31;5071407;28;20120;-77
2023/04/10 11:16:40;;;;;;;23.13;1.65;;;;;;;12.92;95.59;97424.09;5057750;28;20525;-77
2023/04/10 11:19:07;;;;;;;3.17;1.55;;;;;;;12.83;92.60;97416.69;5053462;28;20721;-76
2023/04/10 11:21:33;;;;;;;1.10;1.00;;;;;;;12.87;92.14;97427.13;5069955;28;20484;-77
2023/04/10 11:23:59;;;;;;;2.65;1.23;;;;;;;12.90;91.90;97442.13;5051657;28;20028;-76
2023/04/10 11:26:42;;;;;;;0.63;0.63;;;;;;;12.84;86.86;97418.41;5071094;28;20439;-76
2023/04/10 11:29:16;;;;;;;1.55;1.15;;;;;;;12.75;89.76;97430.69;5070919;28;20028;-78
2023/04/10 11:31:47;;;;;;;0.47;0.47;;;;;;;12.49;91.34;97427.19;5069772;28;20037;-76
2023/04/10 11:34:14;;;;;;;3.55;1.25;;;;;;;12.39;94.49;97441.38;5052759;28;20378;-77
2023/04/10 11:36:43;;;;;;;1.77;1.67;;;;;;;12.54;92.92;97450.16;5069839;28;20053;-76